createdAt,value
2022-07-25T00:00:13.769Z,66.79
2022-07-25T00:02:16.671Z,66.69
2022-07-25T00:04:19.915Z,65.86
2022-07-25T00:06:24.078Z,65.88
2022-07-25T00:08:26.836Z,72.40
2022-07-25T00:10:29.604Z,74.74
2022-07-25T00:12:32.412Z,74.81
2022-07-25T00:14:35.194Z,72.12
2022-07-25T00:16:38.143Z,76.38
2022-07-25T00:18:40.949Z,79.33
2022-07-25T00:20:43.779Z,81.66
2022-07-25T00:22:48.077Z,83.99
2022-07-25T00:24:50.934Z,82.82
2022-07-25T00:26:53.968Z,81.60
2022-07-25T00:28:56.838Z,80.22
2022-07-25T00:30:59.720Z,78.51
2022-07-25T00:33:02.617Z,76.35
2022-07-25T00:35:06.061Z,75.73
2022-07-25T00:37:08.890Z,74.42
2022-07-25T00:39:13.037Z,73.88
2022-07-25T00:41:15.832Z,73.56
2022-07-25T00:43:18.753Z,74.54
2022-07-25T00:45:21.599Z,74.68
2022-07-25T00:47:24.585Z,74.29
2022-07-25T00:49:27.826Z,74.52
2022-07-25T00:51:30.688Z,73.76
2022-07-25T00:53:33.758Z,73.73
2022-07-25T00:55:38.239Z,75.77
2022-07-25T00:57:41.087Z,75.86
2022-07-25T00:59:43.911Z,76.04
2022-07-25T01:01:48.477Z,77.42
2022-07-25T01:03:51.654Z,78.96
2022-07-25T01:05:54.633Z,78.32
2022-07-25T01:07:58.232Z,79.41
2022-07-25T01:10:01.081Z,78.95
2022-07-25T01:12:06.055Z,81.42
2022-07-25T01:14:14.243Z,81.00
2022-07-25T01:16:17.304Z,82.68
2022-07-25T01:18:20.196Z,82.69
2022-07-25T01:20:25.714Z,80.56
2022-07-25T01:22:28.493Z,80.21
2022-07-25T01:24:31.346Z,79.15
2022-07-25T01:26:34.201Z,78.62
2022-07-25T01:28:36.994Z,78.05
2022-07-25T01:30:39.830Z,76.48
2022-07-25T01:32:44.421Z,76.90
2022-07-25T01:34:47.222Z,76.62
2022-07-25T01:36:51.320Z,75.60
2022-07-25T01:38:54.343Z,74.53
2022-07-25T01:40:57.271Z,73.36
2022-07-25T01:43:00.096Z,72.30
2022-07-25T01:45:04.366Z,71.99
2022-07-25T01:47:07.314Z,71.16
2022-07-25T01:49:10.289Z,70.95
2022-07-25T01:51:13.186Z,70.65
2022-07-25T01:53:17.380Z,70.36
2022-07-25T01:55:20.327Z,70.49
2022-07-25T01:57:23.268Z,70.89
2022-07-25T01:59:33.043Z,70.74
2022-07-25T02:01:35.890Z,70.50
2022-07-25T02:03:38.914Z,71.23
2022-07-25T02:05:42.460Z,71.09
2022-07-25T02:07:45.286Z,70.79
2022-07-25T02:09:54.803Z,70.53
2022-07-25T02:11:59.576Z,70.96
2022-07-25T02:14:02.545Z,70.81
2022-07-25T02:16:05.947Z,71.96
2022-07-25T02:18:08.805Z,72.26
2022-07-25T02:20:12.812Z,77.06
2022-07-25T02:22:15.779Z,80.76
2022-07-25T02:24:18.653Z,79.39
2022-07-25T02:26:22.777Z,77.60
2022-07-25T02:28:25.606Z,75.68
2022-07-25T02:30:28.734Z,74.55
2022-07-25T02:32:31.619Z,73.45
2022-07-25T02:34:34.440Z,72.85
2022-07-25T02:36:37.278Z,72.96
2022-07-25T02:38:40.393Z,74.00
2022-07-25T02:40:43.189Z,74.95
2022-07-25T02:42:47.398Z,79.47
2022-07-25T02:44:50.199Z,80.66
2022-07-25T02:46:52.975Z,81.41
2022-07-25T02:48:56.076Z,80.91
2022-07-25T02:50:58.938Z,78.52
2022-07-25T02:53:01.814Z,79.78
2022-07-25T02:55:09.471Z,81.25
2022-07-25T02:57:12.551Z,83.52
2022-07-25T02:59:16.763Z,85.87
2022-07-25T03:01:19.641Z,85.06
2022-07-25T03:03:22.475Z,83.36
2022-07-25T03:05:25.441Z,81.47
2022-07-25T03:07:28.890Z,81.65
2022-07-25T03:09:31.600Z,84.08
2022-07-25T03:11:34.706Z,84.94
2022-07-25T03:13:37.509Z,85.38
2022-07-25T03:15:41.726Z,84.95
2022-07-25T03:17:44.535Z,84.06
2022-07-25T03:19:47.299Z,83.49
2022-07-25T03:21:50.038Z,81.21
2022-07-25T03:23:53.046Z,80.92
2022-07-25T03:25:55.958Z,81.19
2022-07-25T03:27:58.821Z,82.84
2022-07-25T03:30:01.642Z,82.93
2022-07-25T03:32:06.850Z,81.62
2022-07-25T03:34:09.914Z,80.75
2022-07-25T03:36:12.787Z,80.53
2022-07-25T03:38:15.702Z,82.47
2022-07-25T03:40:18.438Z,82.07
2022-07-25T03:42:26.367Z,81.97
2022-07-25T03:44:29.430Z,81.83
2022-07-25T03:46:32.218Z,80.22
2022-07-25T03:48:36.446Z,81.77
2022-07-25T03:50:39.250Z,81.29
2022-07-25T03:52:42.007Z,81.55
2022-07-25T03:54:44.768Z,82.44
2022-07-25T03:56:50.354Z,81.53
2022-07-25T03:58:53.145Z,81.14
2022-07-25T04:00:55.975Z,81.38
2022-07-25T04:03:01.499Z,80.24
2022-07-25T04:05:06.334Z,82.12
2022-07-25T04:07:09.072Z,82.42
2022-07-25T04:09:15.682Z,81.68
2022-07-25T04:11:18.660Z,81.84
2022-07-25T04:13:21.380Z,82.64
2022-07-25T04:15:24.205Z,85.37
2022-07-25T04:17:26.971Z,85.28
2022-07-25T04:19:29.812Z,87.42
2022-07-25T04:21:34.127Z,87.08
2022-07-25T04:23:36.977Z,85.60
2022-07-25T04:25:39.851Z,84.42
2022-07-25T04:27:43.234Z,86.11
2022-07-25T04:29:45.979Z,86.43
2022-07-25T04:31:48.985Z,85.75
2022-07-25T04:33:51.986Z,85.20
2022-07-25T04:35:55.102Z,84.81
2022-07-25T04:37:59.257Z,84.10
2022-07-25T04:40:02.059Z,80.26
2022-07-25T04:42:05.287Z,80.68
2022-07-25T04:44:09.103Z,80.32
2022-07-25T04:46:12.281Z,81.61
2022-07-25T04:48:15.207Z,80.40
2022-07-25T04:50:21.759Z,79.98
2022-07-25T04:52:27.433Z,79.25
2022-07-25T04:54:31.886Z,79.65
2022-07-25T04:56:34.725Z,80.12
2022-07-25T04:58:37.626Z,79.92
2022-07-25T05:00:40.597Z,79.05
2022-07-25T05:02:44.065Z,78.93
2022-07-25T05:04:46.894Z,79.15
2022-07-25T05:06:54.861Z,78.01
2022-07-25T05:08:57.646Z,77.69
2022-07-25T05:11:01.815Z,77.66
2022-07-25T05:13:04.733Z,77.24
2022-07-25T05:15:08.839Z,77.16
2022-07-25T05:17:11.729Z,77.56
2022-07-25T05:19:14.531Z,77.18
2022-07-25T05:21:17.288Z,77.00
2022-07-25T05:23:20.097Z,77.83
2022-07-25T05:25:22.898Z,77.78
2022-07-25T05:27:27.015Z,78.61
2022-07-25T05:29:29.882Z,77.89
2022-07-25T05:31:32.731Z,78.35
2022-07-25T05:33:35.677Z,78.30
2022-07-25T05:35:39.282Z,77.42
2022-07-25T05:37:42.102Z,78.37
2022-07-25T05:39:44.940Z,78.04
2022-07-25T05:41:47.671Z,78.03
2022-07-25T05:43:52.609Z,77.96
2022-07-25T05:46:00.637Z,77.47
2022-07-25T05:48:03.447Z,77.59
2022-07-25T05:50:07.778Z,77.09
2022-07-25T05:52:13.092Z,76.06
2022-07-25T05:54:16.340Z,76.77
2022-07-25T05:56:19.126Z,76.89
2022-07-25T05:58:25.016Z,77.03
2022-07-25T06:00:33.357Z,77.21
2022-07-25T06:02:36.398Z,76.54
2022-07-25T06:04:39.293Z,77.40
2022-07-25T06:06:42.032Z,77.21
2022-07-25T06:08:45.360Z,77.09
2022-07-25T06:10:48.270Z,76.34
2022-07-25T06:12:51.094Z,76.60
2022-07-25T06:14:54.394Z,76.04
2022-07-25T06:16:58.531Z,76.30
2022-07-25T06:19:01.322Z,76.32
2022-07-25T06:21:04.321Z,76.47
2022-07-25T06:23:07.504Z,75.37
2022-07-25T06:25:11.223Z,74.92
2022-07-25T06:27:18.472Z,74.69
2022-07-25T06:29:23.243Z,75.36
2022-07-25T06:31:26.118Z,74.95
2022-07-25T06:33:30.469Z,74.65
2022-07-25T06:35:33.331Z,73.99
2022-07-25T06:37:38.169Z,74.09
2022-07-25T06:39:45.510Z,73.21
2022-07-25T06:41:48.749Z,73.40
2022-07-25T06:43:53.629Z,73.20
2022-07-25T06:45:56.445Z,73.52
2022-07-25T06:47:59.212Z,73.39
2022-07-25T06:50:03.382Z,73.85
2022-07-25T06:52:06.817Z,74.36
2022-07-25T06:54:10.173Z,74.68
2022-07-25T06:56:17.455Z,73.98
2022-07-25T06:58:22.916Z,74.09
2022-07-25T07:00:28.948Z,73.18
2022-07-25T07:02:31.788Z,73.12
2022-07-25T07:04:34.598Z,72.57
2022-07-25T07:06:39.889Z,72.13
2022-07-25T07:08:42.827Z,71.29
2022-07-25T07:10:45.636Z,71.25
2022-07-25T07:12:48.669Z,70.99
2022-07-25T07:14:51.844Z,70.37
2022-07-25T07:16:54.691Z,70.78
2022-07-25T07:18:57.796Z,69.50
2022-07-25T07:21:00.582Z,70.01
2022-07-25T07:23:04.946Z,69.25
2022-07-25T07:25:09.305Z,68.50
2022-07-25T07:27:13.100Z,68.59
2022-07-25T07:29:16.288Z,68.12
2022-07-25T07:31:19.466Z,67.55
2022-07-25T07:33:22.576Z,67.28
2022-07-25T07:35:25.703Z,65.69
2022-07-25T07:37:36.583Z,64.80
2022-07-25T07:39:43.034Z,64.42
2022-07-25T07:41:46.292Z,63.24
2022-07-25T07:43:49.131Z,62.13
2022-07-25T07:45:52.105Z,61.39
2022-07-25T07:47:56.072Z,61.04
2022-07-25T07:49:59.007Z,60.84
2022-07-25T07:52:01.839Z,59.98
2022-07-25T07:54:22.488Z,59.33
2022-07-25T07:56:26.702Z,58.30
2022-07-25T07:58:30.692Z,58.61
2022-07-25T08:00:36.050Z,57.88
2022-07-25T08:02:44.302Z,55.76
2022-07-25T08:04:47.055Z,55.96
2022-07-25T08:06:49.904Z,54.20
2022-07-25T08:08:52.689Z,53.16
2022-07-25T08:10:58.739Z,51.97
2022-07-25T08:13:12.509Z,52.79
2022-07-25T08:15:15.694Z,51.67
2022-07-25T08:17:19.108Z,51.88
2022-07-25T08:19:21.971Z,51.55
2022-07-25T08:21:24.782Z,50.86
2022-07-25T08:23:28.849Z,50.50
2022-07-25T08:25:32.263Z,49.44
2022-07-25T08:27:35.430Z,49.30
2022-07-25T08:29:39.695Z,49.57
2022-07-25T08:31:42.722Z,49.56
2022-07-25T08:33:45.706Z,49.25
2022-07-25T08:35:51.775Z,48.34
2022-07-25T08:37:55.701Z,47.16
2022-07-25T08:39:58.715Z,47.48
2022-07-25T08:42:02.234Z,46.26
2022-07-25T08:44:06.179Z,46.42
2022-07-25T08:46:11.005Z,45.73
2022-07-25T08:48:13.947Z,44.72
2022-07-25T08:50:20.756Z,44.61
2022-07-25T08:52:24.119Z,45.08
2022-07-25T08:54:27.256Z,44.48
2022-07-25T08:56:30.111Z,43.03
2022-07-25T08:58:33.001Z,42.98
2022-07-25T09:00:35.836Z,42.28
2022-07-25T09:02:40.326Z,41.33
2022-07-25T09:04:43.424Z,41.02
2022-07-25T09:06:51.485Z,40.64
2022-07-25T09:08:56.794Z,39.37
2022-07-25T09:10:59.839Z,39.92
2022-07-25T09:13:05.078Z,38.83
2022-07-25T09:15:09.565Z,39.30
2022-07-25T09:17:22.292Z,34.95
2022-07-25T09:19:31.591Z,33.01
2022-07-25T09:21:34.592Z,32.60
2022-07-25T09:23:39.599Z,32.18
2022-07-25T09:25:42.899Z,32.17
2022-07-25T09:27:45.685Z,31.40
2022-07-25T09:29:48.573Z,30.60
2022-07-25T09:31:52.093Z,30.37
2022-07-25T09:33:59.422Z,30.75
2022-07-25T09:36:11.872Z,31.06
2022-07-25T09:38:17.181Z,30.60
2022-07-25T09:40:20.002Z,30.24
2022-07-25T09:42:25.542Z,29.55
2022-07-25T09:44:30.328Z,28.94
2022-07-25T09:46:34.003Z,29.10
2022-07-25T09:48:38.004Z,29.39
2022-07-25T09:50:40.820Z,28.74
2022-07-25T09:52:45.881Z,28.00
2022-07-25T09:54:48.749Z,28.33
2022-07-25T09:56:51.578Z,28.39
2022-07-25T09:58:54.442Z,28.42
2022-07-25T10:01:01.425Z,27.84
2022-07-25T10:03:18.524Z,28.51
2022-07-25T10:05:38.924Z,28.28
2022-07-25T10:07:46.806Z,28.74
2022-07-25T10:09:51.885Z,27.76
2022-07-25T10:12:08.814Z,27.84
2022-07-25T10:14:12.845Z,27.71
2022-07-25T10:16:18.293Z,28.05
2022-07-25T10:18:23.306Z,26.96
2022-07-25T10:20:29.852Z,27.69
2022-07-25T10:22:58.626Z,27.84
2022-07-25T10:25:11.505Z,27.08
2022-07-25T10:27:21.883Z,27.57
2022-07-25T10:29:35.222Z,27.59
2022-07-25T10:31:47.677Z,26.92
2022-07-25T10:33:57.343Z,26.77
2022-07-25T10:36:07.444Z,26.28
2022-07-25T10:38:10.580Z,26.20
2022-07-25T10:40:26.896Z,26.70
2022-07-25T10:42:35.365Z,26.79
2022-07-25T10:44:44.059Z,27.00
2022-07-25T10:46:47.192Z,26.46
2022-07-25T10:48:59.585Z,26.92
2022-07-25T10:51:05.859Z,26.34
2022-07-25T10:53:09.264Z,26.37
2022-07-25T10:55:22.927Z,26.09
2022-07-25T10:57:31.757Z,26.43
2022-07-25T10:59:36.571Z,26.70
2022-07-25T11:01:40.583Z,25.71
2022-07-25T11:03:45.712Z,25.40
2022-07-25T11:05:48.901Z,25.40
2022-07-25T11:08:19.091Z,25.47
2022-07-25T11:10:16.189Z,26.53
2022-07-25T11:12:19.528Z,24.84
2022-07-25T11:14:25.617Z,24.95
2022-07-25T11:16:28.659Z,24.62
2022-07-25T11:18:36.550Z,24.87
2022-07-25T11:20:39.291Z,25.34
2022-07-25T11:22:42.069Z,25.47
2022-07-25T11:24:46.971Z,24.98
2022-07-25T11:26:51.312Z,25.51
2022-07-25T11:28:54.697Z,25.06
2022-07-25T11:31:05.324Z,24.63
2022-07-25T11:33:08.223Z,24.12
2022-07-25T11:35:13.076Z,23.54
2022-07-25T11:37:16.768Z,24.23
2022-07-25T11:39:19.934Z,23.95
2022-07-25T11:41:30.562Z,23.71
2022-07-25T11:43:33.518Z,24.01
2022-07-25T11:45:37.214Z,22.82
2022-07-25T11:47:41.487Z,24.01
2022-07-25T11:49:45.631Z,23.70
2022-07-25T11:51:48.448Z,24.11
2022-07-25T11:53:52.876Z,24.70
2022-07-25T11:55:55.778Z,23.88
2022-07-25T11:58:01.195Z,23.48
2022-07-25T12:00:07.095Z,24.09
2022-07-25T12:02:22.759Z,23.69
2022-07-25T12:04:27.340Z,23.67
2022-07-25T12:06:30.715Z,23.53
2022-07-25T12:08:39.533Z,23.58
2022-07-25T12:10:44.539Z,23.88
2022-07-25T12:12:49.760Z,23.81
2022-07-25T12:14:53.129Z,23.66
2022-07-25T12:16:56.129Z,23.23
2022-07-25T12:18:59.056Z,24.34
2022-07-25T12:21:03.261Z,24.08
2022-07-25T12:23:09.490Z,24.98
2022-07-25T12:25:13.119Z,25.34
2022-07-25T12:27:16.009Z,25.83
2022-07-25T12:29:19.109Z,26.31
2022-07-25T12:31:22.226Z,26.48
2022-07-25T12:33:25.397Z,26.72
2022-07-25T12:35:28.662Z,27.17
2022-07-25T12:37:33.205Z,26.79
2022-07-25T12:39:35.974Z,27.30
2022-07-25T12:41:40.003Z,27.54
2022-07-25T12:43:42.762Z,27.54
2022-07-25T12:45:45.640Z,27.94
2022-07-25T12:47:49.358Z,28.23
2022-07-25T12:49:52.647Z,28.16
2022-07-25T12:51:58.204Z,26.99
2022-07-25T12:54:02.525Z,27.12
2022-07-25T12:56:05.904Z,26.76
2022-07-25T12:58:08.970Z,27.21
2022-07-25T13:00:15.322Z,25.88
2022-07-25T13:02:18.252Z,26.95
2022-07-25T13:04:21.274Z,26.50
2022-07-25T13:06:24.295Z,25.70
2022-07-25T13:08:27.534Z,26.05
2022-07-25T13:10:31.899Z,25.99
2022-07-25T13:12:34.675Z,26.34
2022-07-25T13:14:37.461Z,26.90
2022-07-25T13:16:40.378Z,27.56
2022-07-25T13:18:44.335Z,27.05
2022-07-25T13:20:47.238Z,26.81
2022-07-25T13:22:50.055Z,26.89
2022-07-25T13:24:53.156Z,26.54
2022-07-25T13:26:57.421Z,26.36
2022-07-25T13:29:00.802Z,26.84
2022-07-25T13:31:06.943Z,26.55
2022-07-25T13:33:10.570Z,27.15
2022-07-25T13:35:17.698Z,27.69
2022-07-25T13:37:23.109Z,28.24
2022-07-25T13:39:27.129Z,28.17
2022-07-25T13:41:29.949Z,28.35
2022-07-25T13:43:34.114Z,28.36
2022-07-25T13:45:37.125Z,28.38
2022-07-25T13:47:40.011Z,29.72
2022-07-25T13:49:42.900Z,30.03
2022-07-25T13:51:45.846Z,30.40
2022-07-25T13:53:48.778Z,29.62
2022-07-25T13:55:52.147Z,29.66
2022-07-25T13:57:55.484Z,30.24
2022-07-25T13:59:59.666Z,29.87
2022-07-25T14:02:02.470Z,30.50
2022-07-25T14:04:05.378Z,29.73
2022-07-25T14:06:11.447Z,30.01
2022-07-25T14:08:14.285Z,30.18
2022-07-25T14:10:17.079Z,29.71
2022-07-25T14:12:19.927Z,30.13
2022-07-25T14:14:22.716Z,30.12
2022-07-25T14:16:26.958Z,30.53
2022-07-25T14:18:30.629Z,29.66
2022-07-25T14:20:33.959Z,30.00
2022-07-25T14:22:36.869Z,29.53
2022-07-25T14:24:39.835Z,28.99
2022-07-25T14:26:42.720Z,28.44
2022-07-25T14:28:45.625Z,28.38
2022-07-25T14:30:48.476Z,28.15
2022-07-25T14:32:52.649Z,28.22
2022-07-25T14:34:55.416Z,27.84
2022-07-25T14:36:58.268Z,28.19
2022-07-25T14:39:01.147Z,29.66
2022-07-25T14:41:06.712Z,28.86
2022-07-25T14:43:13.453Z,28.34
2022-07-25T14:45:18.028Z,27.88
2022-07-25T14:47:21.563Z,28.42
2022-07-25T14:49:28.977Z,27.92
2022-07-25T14:51:32.931Z,28.52
2022-07-25T14:53:36.090Z,28.56
2022-07-25T14:55:38.954Z,28.71
2022-07-25T14:57:41.768Z,28.92
2022-07-25T14:59:44.682Z,28.92
2022-07-25T15:01:47.572Z,28.98
2022-07-25T15:03:50.397Z,28.65
2022-07-25T15:05:54.626Z,29.15
2022-07-25T15:07:57.447Z,29.55
2022-07-25T15:10:00.497Z,29.52
2022-07-25T15:12:03.391Z,29.85
2022-07-25T15:14:06.145Z,29.06
2022-07-25T15:16:09.274Z,29.73
2022-07-25T15:18:14.094Z,29.46
2022-07-25T15:20:17.107Z,29.89
2022-07-25T15:22:21.420Z,29.38
2022-07-25T15:24:28.954Z,28.34
2022-07-25T15:26:32.329Z,27.69
2022-07-25T15:28:37.983Z,28.01
2022-07-25T15:30:41.929Z,27.75
2022-07-25T15:32:45.786Z,27.49
2022-07-25T15:34:48.536Z,28.46
2022-07-25T15:36:52.175Z,30.45
2022-07-25T15:38:56.321Z,30.62
2022-07-25T15:40:59.344Z,30.89
2022-07-25T15:43:02.306Z,30.55
2022-07-25T15:45:33.495Z,30.99
2022-07-25T15:47:28.722Z,31.50
2022-07-25T15:49:31.505Z,31.61
2022-07-25T15:51:34.449Z,32.68
2022-07-25T15:53:37.598Z,31.99
2022-07-25T15:55:42.845Z,31.80
2022-07-25T15:57:45.695Z,32.90
2022-07-25T15:59:48.552Z,33.82
2022-07-25T16:01:51.492Z,33.45
2022-07-25T16:03:55.278Z,35.12
2022-07-25T16:05:58.928Z,35.06
2022-07-25T16:08:01.954Z,36.28
2022-07-25T16:10:06.239Z,36.32
2022-07-25T16:12:11.404Z,38.53
2022-07-25T16:14:14.184Z,43.63
2022-07-25T16:16:17.199Z,44.87
2022-07-25T16:18:20.079Z,46.10
2022-07-25T16:20:23.967Z,47.22
2022-07-25T16:22:27.133Z,47.64
2022-07-25T16:24:29.952Z,47.04
2022-07-25T16:26:32.844Z,48.48
2022-07-25T16:28:37.436Z,49.18
2022-07-25T16:30:40.279Z,49.56
2022-07-25T16:32:43.656Z,49.45
2022-07-25T16:34:47.221Z,51.92
2022-07-25T16:36:50.242Z,51.59
2022-07-25T16:38:53.432Z,49.18
2022-07-25T16:40:56.313Z,48.08
2022-07-25T16:42:59.651Z,49.65
2022-07-25T16:45:04.497Z,52.47
2022-07-25T16:47:08.442Z,55.97
2022-07-25T16:49:13.350Z,51.85
2022-07-25T16:51:16.504Z,50.20
2022-07-25T16:53:20.501Z,53.54
2022-07-25T16:55:23.381Z,58.16
2022-07-25T16:57:26.293Z,60.39
2022-07-25T16:59:29.070Z,58.81
2022-07-25T17:01:34.581Z,56.81
2022-07-25T17:03:37.609Z,56.98
2022-07-25T17:05:41.469Z,54.03
2022-07-25T17:07:44.696Z,52.51
2022-07-25T17:09:47.551Z,53.10
2022-07-25T17:11:50.457Z,52.42
2022-07-25T17:13:53.337Z,54.72
2022-07-25T17:15:56.209Z,54.15
2022-07-25T17:18:00.732Z,52.97
2022-07-25T17:20:04.089Z,55.82
2022-07-25T17:22:07.616Z,57.71
2022-07-25T17:24:11.147Z,54.19
2022-07-25T17:26:14.208Z,53.70
2022-07-25T17:28:17.256Z,49.35
2022-07-25T17:30:20.104Z,47.07
2022-07-25T17:32:26.444Z,46.72
2022-07-25T17:34:34.228Z,43.94
2022-07-25T17:36:37.098Z,40.98
2022-07-25T17:38:39.891Z,41.52
2022-07-25T17:40:42.773Z,39.66
2022-07-25T17:42:47.354Z,36.32
2022-07-25T17:44:50.294Z,35.88
2022-07-25T17:46:53.513Z,37.24
2022-07-25T17:48:56.533Z,36.24
2022-07-25T17:51:01.001Z,36.80
2022-07-25T17:53:03.854Z,36.71
2022-07-25T17:55:07.344Z,35.45
2022-07-25T17:57:10.968Z,35.15
2022-07-25T17:59:14.245Z,36.29
2022-07-25T18:01:17.160Z,35.78
2022-07-25T18:03:20.139Z,35.38
2022-07-25T18:05:23.168Z,36.48
2022-07-25T18:07:27.864Z,37.26
2022-07-25T18:09:31.025Z,39.17
2022-07-25T18:11:34.203Z,39.44
2022-07-25T18:13:37.825Z,40.25
2022-07-25T18:15:40.830Z,40.61
2022-07-25T18:17:44.488Z,40.81
2022-07-25T18:19:47.385Z,40.93
2022-07-25T18:21:50.187Z,41.51
2022-07-25T18:23:54.447Z,43.84
2022-07-25T18:25:57.568Z,43.29
2022-07-25T18:28:01.558Z,43.33
2022-07-25T18:30:06.012Z,44.05
2022-07-25T18:32:09.167Z,44.10
2022-07-25T18:34:11.995Z,43.92
2022-07-25T18:36:14.850Z,43.90
2022-07-25T18:38:17.794Z,44.70
2022-07-25T18:40:23.235Z,44.51
2022-07-25T18:42:29.710Z,44.47
2022-07-25T18:44:32.997Z,44.96
2022-07-25T18:46:37.275Z,44.76
2022-07-25T18:48:42.111Z,45.63
2022-07-25T18:50:45.048Z,45.80
2022-07-25T18:52:48.273Z,45.60
2022-07-25T18:54:51.111Z,45.11
2022-07-25T18:56:55.363Z,45.92
2022-07-25T18:58:58.391Z,46.56
2022-07-25T19:01:03.308Z,47.26
2022-07-25T19:03:06.066Z,47.05
2022-07-25T19:05:10.094Z,47.02
2022-07-25T19:07:13.678Z,47.17
2022-07-25T19:09:16.480Z,47.52
2022-07-25T19:11:19.351Z,48.00
2022-07-25T19:13:47.663Z,48.14
2022-07-25T19:15:46.441Z,48.57
2022-07-25T19:17:49.600Z,48.89
2022-07-25T19:19:52.884Z,48.68
2022-07-25T19:21:55.769Z,47.79
2022-07-25T19:23:58.543Z,47.21
2022-07-25T19:26:02.135Z,48.29
2022-07-25T19:28:05.614Z,48.70
2022-07-25T19:30:15.280Z,49.05
2022-07-25T19:32:20.075Z,49.47
2022-07-25T19:34:22.773Z,48.79
2022-07-25T19:36:25.778Z,49.35
2022-07-25T19:38:29.040Z,49.14
2022-07-25T19:40:33.367Z,49.79
2022-07-25T19:42:36.224Z,49.69
2022-07-25T19:44:38.921Z,50.17
2022-07-25T19:46:43.126Z,50.20
2022-07-25T19:48:45.971Z,50.06
2022-07-25T19:50:48.991Z,51.06
2022-07-25T19:52:51.855Z,50.70
2022-07-25T19:54:54.941Z,50.41
2022-07-25T19:56:57.825Z,51.71
2022-07-25T19:59:02.981Z,50.61
2022-07-25T20:01:08.703Z,51.32
2022-07-25T20:03:12.830Z,51.02
2022-07-25T20:05:18.432Z,50.45
2022-07-25T20:07:24.142Z,50.16
2022-07-25T20:09:27.227Z,50.95
2022-07-25T20:11:37.701Z,51.09
2022-07-25T20:13:40.871Z,51.99
2022-07-25T20:15:43.915Z,51.19
2022-07-25T20:17:46.781Z,50.89
2022-07-25T20:19:51.800Z,51.59
2022-07-25T20:21:54.599Z,50.73
2022-07-25T20:23:57.492Z,51.77
2022-07-25T20:26:02.290Z,50.52
2022-07-25T20:28:05.701Z,50.26
2022-07-25T20:30:10.307Z,49.07
2022-07-25T20:32:13.142Z,51.20
2022-07-25T20:34:16.607Z,51.19
2022-07-25T20:36:23.759Z,49.68
2022-07-25T20:38:28.389Z,50.36
2022-07-25T20:40:31.312Z,50.31
2022-07-25T20:42:35.647Z,51.13
2022-07-25T20:44:38.590Z,51.11
2022-07-25T20:46:41.433Z,50.61
2022-07-25T20:48:44.493Z,50.69
2022-07-25T20:50:47.561Z,49.48
2022-07-25T20:52:52.228Z,49.23
2022-07-25T20:54:55.101Z,49.31
2022-07-25T20:56:57.866Z,49.16
2022-07-25T20:59:00.737Z,49.15
2022-07-25T21:01:03.639Z,49.63
2022-07-25T21:03:08.280Z,48.52
2022-07-25T21:05:11.228Z,48.06
2022-07-25T21:07:14.039Z,49.00
2022-07-25T21:09:18.482Z,47.62
2022-07-25T21:11:21.466Z,49.26
2022-07-25T21:13:24.309Z,49.94
2022-07-25T21:15:27.421Z,50.88
2022-07-25T21:17:30.597Z,51.83
2022-07-25T21:19:33.480Z,51.64
2022-07-25T21:21:37.123Z,53.36
2022-07-25T21:23:40.003Z,52.10
2022-07-25T21:25:44.270Z,51.58
2022-07-25T21:27:47.138Z,51.06
2022-07-25T21:29:50.042Z,49.40
2022-07-25T21:31:52.879Z,50.21
2022-07-25T21:33:57.288Z,51.53
2022-07-25T21:36:00.153Z,51.89
2022-07-25T21:38:03.134Z,52.27
2022-07-25T21:40:07.245Z,53.00
2022-07-25T21:42:11.720Z,53.50
2022-07-25T21:44:14.581Z,53.87
2022-07-25T21:46:17.543Z,53.25
2022-07-25T21:48:40.542Z,52.99
2022-07-25T21:50:45.683Z,52.56
2022-07-25T21:52:50.033Z,52.91
2022-07-25T21:54:53.002Z,53.73
2022-07-25T21:56:55.842Z,54.05
2022-07-25T21:59:00.351Z,53.98
2022-07-25T22:01:03.374Z,54.79
2022-07-25T22:03:06.255Z,55.51
2022-07-25T22:05:09.556Z,53.79
2022-07-25T22:07:12.400Z,54.50
2022-07-25T22:09:15.344Z,53.34
2022-07-25T22:11:39.232Z,55.90
2022-07-25T22:13:43.135Z,57.00
2022-07-25T22:15:47.541Z,57.82
2022-07-25T22:17:50.368Z,60.23
2022-07-25T22:19:53.294Z,59.86
2022-07-25T22:21:56.132Z,61.18
2022-07-25T22:23:58.980Z,60.98
2022-07-25T22:26:03.122Z,61.00
2022-07-25T22:28:06.418Z,61.19
2022-07-25T22:30:19.266Z,60.88
2022-07-25T22:32:23.795Z,59.26
2022-07-25T22:34:27.094Z,60.06
2022-07-25T22:36:29.885Z,62.50
2022-07-25T22:38:32.638Z,61.37
2022-07-25T22:40:35.435Z,61.60
2022-07-25T22:42:38.200Z,59.54
2022-07-25T22:44:41.033Z,59.52
2022-07-25T22:46:43.970Z,60.23
2022-07-25T22:48:48.224Z,59.25
2022-07-25T22:50:51.102Z,59.01
2022-07-25T22:52:53.932Z,59.60
2022-07-25T22:54:56.731Z,59.78
2022-07-25T22:56:59.561Z,61.95
2022-07-25T22:59:02.575Z,60.35
2022-07-25T23:01:05.430Z,60.11
2022-07-25T23:03:09.493Z,60.07
2022-07-25T23:05:13.732Z,61.43
2022-07-25T23:07:16.545Z,60.06
2022-07-25T23:09:19.456Z,62.17
2022-07-25T23:11:22.268Z,62.94
2022-07-25T23:13:25.114Z,64.25
2022-07-25T23:15:28.239Z,62.11
2022-07-25T23:17:50.844Z,63.82
2022-07-25T23:19:55.398Z,65.74
2022-07-25T23:21:59.585Z,65.56
2022-07-25T23:24:02.445Z,65.57
2022-07-25T23:26:05.277Z,70.88
2022-07-25T23:28:08.173Z,70.16
2022-07-25T23:30:11.822Z,66.56
2022-07-25T23:32:14.818Z,66.00
2022-07-25T23:34:17.666Z,66.05
2022-07-25T23:36:20.566Z,65.89
2022-07-25T23:38:24.870Z,65.31
2022-07-25T23:40:27.722Z,66.20
2022-07-25T23:42:30.567Z,65.60
2022-07-25T23:44:34.428Z,66.84
2022-07-25T23:46:39.559Z,65.21
2022-07-25T23:48:42.714Z,67.91
2022-07-25T23:50:45.583Z,70.51
2022-07-25T23:52:48.444Z,69.07
2022-07-25T23:54:53.310Z,67.40
2022-07-25T23:56:57.595Z,66.99
2022-07-25T23:59:00.411Z,68.41
